createdAt,value
2019-06-08T00:00:59.883Z,16.83
2019-06-08T00:02:04.116Z,15.27
2019-06-08T00:03:07.979Z,16.07
2019-06-08T00:04:12.934Z,12.43
2019-06-08T00:05:16.951Z,9.63
2019-06-08T00:06:23.229Z,13.27
2019-06-08T00:07:26.790Z,10.53
2019-06-08T00:08:31.010Z,10.60
2019-06-08T00:09:34.726Z,16.63
2019-06-08T00:10:38.915Z,9.13
2019-06-08T00:11:42.543Z,15.93
2019-06-08T00:12:46.702Z,6.73
2019-06-08T00:13:50.331Z,12.20
2019-06-08T00:14:54.561Z,7.70
2019-06-08T00:15:58.165Z,6.40
2019-06-08T00:17:02.327Z,10.17
2019-06-08T00:18:05.947Z,10.73
2019-06-08T00:19:10.086Z,11.77
2019-06-08T00:20:15.759Z,11.20
2019-06-08T00:21:20.223Z,10.23
2019-06-08T00:22:24.004Z,9.90
2019-06-08T00:23:28.102Z,9.07
2019-06-08T00:24:31.983Z,10.07
2019-06-08T00:25:36.190Z,9.70
2019-06-08T00:26:39.714Z,7.17
2019-06-08T00:27:43.810Z,13.47
2019-06-08T00:28:47.358Z,14.93
2019-06-08T00:29:51.521Z,10.00
2019-06-08T00:30:55.030Z,10.97
2019-06-08T00:31:59.196Z,11.53
2019-06-08T00:33:02.822Z,6.60
2019-06-08T00:34:07.383Z,8.67
2019-06-08T00:35:11.118Z,8.03
2019-06-08T00:36:15.185Z,10.83
2019-06-08T00:37:18.862Z,9.03
2019-06-08T00:38:23.094Z,10.07
2019-06-08T00:39:26.734Z,8.23
2019-06-08T00:40:31.017Z,9.23
2019-06-08T00:41:34.654Z,10.33
2019-06-08T00:42:38.759Z,7.30
2019-06-08T00:43:42.320Z,8.30
2019-06-08T00:44:46.479Z,8.30
2019-06-08T00:45:50.108Z,11.57
2019-06-08T00:46:54.338Z,8.77
2019-06-08T00:47:58.004Z,10.10
2019-06-08T00:49:02.207Z,7.40
2019-06-08T00:50:06.950Z,13.93
2019-06-08T00:51:11.279Z,6.27
2019-06-08T00:52:15.292Z,13.30
2019-06-08T00:53:20.134Z,9.20
2019-06-08T00:54:25.808Z,8.43
2019-06-08T00:55:30.075Z,7.63
2019-06-08T00:56:33.617Z,9.20
2019-06-08T00:57:37.852Z,11.20
2019-06-08T00:58:41.461Z,8.73
2019-06-08T00:59:45.530Z,13.23
2019-06-08T01:00:49.152Z,11.20
2019-06-08T01:01:53.370Z,10.47
2019-06-08T01:02:57.007Z,11.10
2019-06-08T01:04:01.248Z,10.93
2019-06-08T01:05:07.080Z,8.13
2019-06-08T01:06:11.335Z,9.13
2019-06-08T01:07:14.974Z,9.37
2019-06-08T01:08:20.677Z,7.80
2019-06-08T01:09:24.584Z,9.70
2019-06-08T01:10:29.706Z,12.43
2019-06-08T01:11:33.408Z,9.43
2019-06-08T01:12:37.635Z,11.33
2019-06-08T01:13:41.257Z,12.50
2019-06-08T01:14:45.864Z,6.97
2019-06-08T01:15:49.502Z,9.90
2019-06-08T01:16:53.696Z,8.30
2019-06-08T01:18:02.667Z,10.00
2019-06-08T01:19:03.269Z,11.63
2019-06-08T01:20:08.031Z,7.70
2019-06-08T01:21:12.100Z,10.67
2019-06-08T01:22:15.638Z,10.03
2019-06-08T01:23:19.870Z,14.87
2019-06-08T01:24:23.705Z,11.67
2019-06-08T01:25:28.430Z,10.30
2019-06-08T01:26:32.059Z,18.03
2019-06-08T01:27:36.323Z,13.03
2019-06-08T01:28:39.886Z,16.30
2019-06-08T01:29:44.554Z,12.70
2019-06-08T01:30:48.193Z,12.90
2019-06-08T01:31:52.288Z,10.97
2019-06-08T01:32:56.228Z,12.03
2019-06-08T01:34:00.465Z,11.40
2019-06-08T01:35:04.710Z,10.03
2019-06-08T01:36:09.094Z,12.77
2019-06-08T01:37:12.678Z,16.67
2019-06-08T01:38:16.858Z,15.23
2019-06-08T01:39:21.119Z,13.93
2019-06-08T01:40:25.906Z,15.43
2019-06-08T01:41:29.710Z,13.80
2019-06-08T01:42:33.838Z,16.13
2019-06-08T01:43:37.424Z,16.90
2019-06-08T01:44:41.691Z,13.33
2019-06-08T01:45:45.315Z,17.07
2019-06-08T01:46:49.482Z,16.23
2019-06-08T01:47:53.037Z,15.03
2019-06-08T01:48:57.286Z,13.97
2019-06-08T01:50:00.949Z,13.93
2019-06-08T01:51:05.990Z,13.83
2019-06-08T01:52:09.594Z,18.37
2019-06-08T01:53:14.137Z,19.83
2019-06-08T01:54:17.722Z,24.23
2019-06-08T01:55:23.003Z,26.13
2019-06-08T01:56:27.091Z,28.83
2019-06-08T01:57:31.594Z,46.97
2019-06-08T01:58:35.346Z,42.73
2019-06-08T01:59:39.570Z,41.27
2019-06-08T02:00:43.198Z,42.77
2019-06-08T02:01:47.469Z,46.80
2019-06-08T02:02:51.392Z,51.30
2019-06-08T02:03:55.545Z,50.23
2019-06-08T02:04:59.345Z,44.07
2019-06-08T02:06:03.741Z,35.83
2019-06-08T02:07:07.438Z,26.00
2019-06-08T02:08:11.672Z,25.40
2019-06-08T02:09:15.305Z,22.47
2019-06-08T02:10:21.335Z,21.37
2019-06-08T02:11:24.920Z,21.23
2019-06-08T02:12:29.100Z,24.13
2019-06-08T02:13:33.147Z,19.23
2019-06-08T02:14:37.473Z,18.50
2019-06-08T02:15:41.121Z,15.87
2019-06-08T02:16:45.262Z,21.27
2019-06-08T02:17:48.944Z,15.20
2019-06-08T02:18:53.159Z,17.83
2019-06-08T02:19:56.641Z,17.17
2019-06-08T02:21:00.881Z,16.47
2019-06-08T02:22:04.604Z,16.23
2019-06-08T02:23:08.855Z,15.23
2019-06-08T02:24:12.488Z,14.87
2019-06-08T02:25:18.331Z,14.27
2019-06-08T02:26:21.958Z,17.73
2019-06-08T02:27:27.243Z,15.13
2019-06-08T02:28:31.562Z,17.60
2019-06-08T02:29:35.879Z,15.07
2019-06-08T02:30:41.966Z,14.77
2019-06-08T02:31:47.981Z,13.70
2019-06-08T02:32:50.736Z,14.70
2019-06-08T02:33:54.986Z,14.80
2019-06-08T02:34:58.887Z,15.40
2019-06-08T02:36:02.842Z,13.90
2019-06-08T02:37:06.467Z,15.13
2019-06-08T02:38:10.698Z,16.20
2019-06-08T02:39:14.385Z,10.63
2019-06-08T02:40:19.009Z,12.83
2019-06-08T02:41:22.605Z,11.63
2019-06-08T02:42:28.511Z,11.70
2019-06-08T02:43:33.344Z,14.03
2019-06-08T02:44:37.737Z,12.57
2019-06-08T02:45:41.938Z,12.83
2019-06-08T02:46:46.109Z,11.13
2019-06-08T02:47:49.734Z,12.47
2019-06-08T02:49:03.331Z,11.77
2019-06-08T02:49:59.263Z,13.50
2019-06-08T02:51:03.990Z,12.03
2019-06-08T02:52:07.636Z,15.10
2019-06-08T02:53:12.562Z,13.07
2019-06-08T02:54:16.485Z,11.60
2019-06-08T02:55:20.679Z,13.63
2019-06-08T02:56:25.218Z,9.30
2019-06-08T02:57:33.207Z,12.03
2019-06-08T02:58:40.352Z,12.73
2019-06-08T02:59:44.554Z,14.23
2019-06-08T03:00:50.069Z,12.33
2019-06-08T03:01:56.524Z,11.20
2019-06-08T03:03:01.147Z,14.50
2019-06-08T03:04:05.702Z,10.77
2019-06-08T03:05:09.546Z,15.33
2019-06-08T03:06:16.165Z,12.90
2019-06-08T03:07:22.498Z,16.00
2019-06-08T03:08:29.390Z,16.00
2019-06-08T03:09:34.779Z,9.47
2019-06-08T03:10:41.361Z,13.40
2019-06-08T03:11:47.032Z,12.97
2019-06-08T03:12:53.205Z,12.33
2019-06-08T03:13:58.296Z,16.20
2019-06-08T03:15:04.497Z,15.47
2019-06-08T03:16:08.110Z,11.37
2019-06-08T03:17:12.317Z,14.77
2019-06-08T03:18:16.157Z,17.10
2019-06-08T03:19:22.668Z,14.63
2019-06-08T03:20:25.911Z,10.70
2019-06-08T03:21:31.389Z,15.17
2019-06-08T03:22:37.156Z,9.30
2019-06-08T03:23:42.915Z,9.93
2019-06-08T03:24:46.398Z,10.77
2019-06-08T03:25:52.878Z,12.93
2019-06-08T03:26:56.265Z,10.50
2019-06-08T03:28:00.337Z,10.40
2019-06-08T03:29:03.987Z,12.83
2019-06-08T03:30:17.639Z,7.83
2019-06-08T03:31:16.697Z,11.30
2019-06-08T03:32:20.861Z,9.63
2019-06-08T03:33:24.498Z,14.63
2019-06-08T03:34:28.644Z,13.10
2019-06-08T03:35:34.880Z,9.53
2019-06-08T03:36:43.860Z,10.23
2019-06-08T03:37:44.432Z,14.70
2019-06-08T03:38:48.808Z,12.20
2019-06-08T03:39:52.307Z,15.47
2019-06-08T03:40:56.545Z,16.97
2019-06-08T03:42:00.237Z,14.33
2019-06-08T03:43:04.441Z,12.07
2019-06-08T03:44:08.069Z,11.37
2019-06-08T03:45:12.704Z,13.70
2019-06-08T03:46:16.351Z,7.90
2019-06-08T03:47:20.589Z,11.00
2019-06-08T03:48:24.604Z,11.13
2019-06-08T03:49:41.305Z,11.63
2019-06-08T03:50:35.532Z,10.73
2019-06-08T03:51:43.632Z,16.00
2019-06-08T03:52:46.275Z,11.17
2019-06-08T03:53:50.706Z,12.37
2019-06-08T03:54:54.718Z,11.83
2019-06-08T03:55:58.856Z,10.90
2019-06-08T03:57:02.426Z,11.27
2019-06-08T03:58:06.790Z,13.70
2019-06-08T03:59:10.351Z,16.57
2019-06-08T04:00:15.362Z,17.73
2019-06-08T04:01:19.115Z,10.20
2019-06-08T04:02:23.314Z,10.13
2019-06-08T04:03:26.935Z,11.37
2019-06-08T04:04:31.147Z,14.37
2019-06-08T04:05:34.757Z,15.97
2019-06-08T04:06:39.875Z,21.53
2019-06-08T04:07:45.882Z,19.93
2019-06-08T04:08:50.018Z,11.37
2019-06-08T04:09:53.695Z,12.73
2019-06-08T04:10:57.817Z,11.87
2019-06-08T04:12:01.568Z,18.47
2019-06-08T04:13:05.771Z,16.40
2019-06-08T04:14:09.457Z,13.10
2019-06-08T04:15:14.181Z,12.30
2019-06-08T04:16:19.387Z,17.10
2019-06-08T04:17:23.831Z,17.40
2019-06-08T04:18:27.477Z,19.20
2019-06-08T04:19:31.659Z,14.37
2019-06-08T04:20:35.311Z,16.77
2019-06-08T04:21:40.263Z,17.73
2019-06-08T04:22:47.121Z,19.97
2019-06-08T04:23:51.612Z,17.40
2019-06-08T04:24:55.308Z,12.97
2019-06-08T04:25:59.454Z,15.57
2019-06-08T04:27:03.015Z,18.70
2019-06-08T04:28:07.399Z,18.20
2019-06-08T04:29:10.971Z,20.00
2019-06-08T04:30:15.904Z,15.53
2019-06-08T04:31:19.512Z,20.40
2019-06-08T04:32:23.717Z,16.10
2019-06-08T04:33:27.346Z,14.97
2019-06-08T04:34:31.493Z,14.13
2019-06-08T04:35:35.365Z,12.60
2019-06-08T04:36:41.239Z,14.73
2019-06-08T04:37:47.000Z,14.00
2019-06-08T04:38:51.384Z,12.80
2019-06-08T04:39:54.957Z,11.83
2019-06-08T04:40:59.047Z,12.97
2019-06-08T04:42:02.713Z,13.03
2019-06-08T04:43:07.015Z,14.47
2019-06-08T04:44:10.644Z,17.20
2019-06-08T04:45:15.261Z,11.13
2019-06-08T04:46:18.883Z,11.33
2019-06-08T04:47:23.209Z,16.10
2019-06-08T04:48:26.846Z,14.10
2019-06-08T04:49:31.125Z,15.27
2019-06-08T04:50:34.753Z,12.33
2019-06-08T04:51:40.608Z,13.97
2019-06-08T04:52:44.998Z,23.63
2019-06-08T04:53:49.907Z,11.53
2019-06-08T04:54:53.608Z,14.90
2019-06-08T04:56:01.242Z,18.93
2019-06-08T04:57:04.895Z,15.07
2019-06-08T04:58:09.080Z,16.30
2019-06-08T04:59:12.711Z,13.80
2019-06-08T05:00:17.127Z,16.33
2019-06-08T05:01:20.745Z,18.77
2019-06-08T05:02:24.854Z,16.87
2019-06-08T05:03:28.454Z,14.00
2019-06-08T05:04:32.620Z,14.53
2019-06-08T05:05:36.750Z,14.83
2019-06-08T05:06:41.070Z,13.50
2019-06-08T05:07:46.443Z,13.97
2019-06-08T05:08:53.572Z,15.83
2019-06-08T05:09:58.780Z,17.07
2019-06-08T05:11:04.016Z,18.47
2019-06-08T05:12:07.707Z,16.37
2019-06-08T05:13:11.933Z,14.83
2019-06-08T05:14:15.819Z,16.07
2019-06-08T05:15:20.030Z,11.63
2019-06-08T05:16:23.688Z,18.33
2019-06-08T05:17:27.843Z,19.50
2019-06-08T05:18:31.399Z,18.60
2019-06-08T05:19:35.796Z,18.03
2019-06-08T05:20:42.090Z,14.53
2019-06-08T05:21:45.519Z,15.97
2019-06-08T05:22:49.794Z,15.70
2019-06-08T05:23:58.586Z,12.20
2019-06-08T05:24:59.715Z,13.37
2019-06-08T05:26:03.794Z,11.10
2019-06-08T05:27:07.437Z,12.63
2019-06-08T05:28:11.649Z,11.73
2019-06-08T05:29:15.295Z,14.53
2019-06-08T05:30:20.315Z,13.03
2019-06-08T05:31:23.965Z,13.83
2019-06-08T05:32:28.531Z,15.57
2019-06-08T05:33:32.100Z,12.07
2019-06-08T05:34:36.204Z,15.50
2019-06-08T05:35:39.872Z,14.13
2019-06-08T05:36:45.389Z,11.63
2019-06-08T05:37:49.798Z,13.80
2019-06-08T05:38:53.980Z,19.30
2019-06-08T05:39:57.620Z,10.23
2019-06-08T05:41:01.815Z,14.57
2019-06-08T05:42:05.563Z,11.77
2019-06-08T05:43:09.705Z,14.47
2019-06-08T05:44:15.556Z,17.53
2019-06-08T05:45:19.805Z,14.77
2019-06-08T05:46:23.494Z,14.50
2019-06-08T05:47:27.642Z,12.77
2019-06-08T05:48:31.169Z,11.70
2019-06-08T05:49:35.450Z,16.07
2019-06-08T05:50:55.899Z,18.80
2019-06-08T05:51:45.832Z,14.20
2019-06-08T05:52:50.340Z,19.93
2019-06-08T05:53:54.614Z,11.17
2019-06-08T05:54:58.181Z,13.33
2019-06-08T05:56:02.320Z,12.57
2019-06-08T05:57:05.984Z,12.90
2019-06-08T05:58:10.216Z,16.53
2019-06-08T05:59:14.200Z,19.63
2019-06-08T06:00:18.815Z,11.00
2019-06-08T06:01:22.446Z,11.07
2019-06-08T06:02:27.317Z,14.10
2019-06-08T06:03:30.937Z,13.13
2019-06-08T06:04:36.211Z,13.80
2019-06-08T06:05:40.245Z,13.07
2019-06-08T06:06:44.635Z,13.43
2019-06-08T06:07:49.034Z,18.07
2019-06-08T06:08:54.417Z,13.70
2019-06-08T06:10:02.264Z,11.10
2019-06-08T06:11:06.490Z,12.57
2019-06-08T06:12:20.982Z,11.10
2019-06-08T06:13:25.192Z,11.20
2019-06-08T06:14:31.631Z,9.73
2019-06-08T06:15:35.885Z,16.10
2019-06-08T06:16:40.877Z,12.83
2019-06-08T06:17:48.431Z,15.37
2019-06-08T06:18:52.790Z,10.87
2019-06-08T06:19:57.010Z,16.17
2019-06-08T06:21:10.958Z,10.73
2019-06-08T06:22:08.544Z,12.13
2019-06-08T06:23:12.220Z,14.93
2019-06-08T06:24:16.461Z,15.23
2019-06-08T06:25:20.055Z,12.90
2019-06-08T06:26:24.283Z,13.70
2019-06-08T06:27:28.292Z,16.63
2019-06-08T06:28:32.549Z,11.67
2019-06-08T06:29:36.202Z,18.63
2019-06-08T06:30:41.571Z,11.87
2019-06-08T06:32:14.384Z,15.37
2019-06-08T06:33:18.402Z,12.13
2019-06-08T06:34:22.081Z,14.10
2019-06-08T06:35:26.292Z,13.10
2019-06-08T06:36:29.868Z,12.60
2019-06-08T06:37:34.132Z,11.07
2019-06-08T06:38:37.700Z,17.50
2019-06-08T06:39:42.017Z,19.40
2019-06-08T06:40:45.959Z,12.67
2019-06-08T06:41:50.211Z,13.80
2019-06-08T06:42:56.652Z,13.23
2019-06-08T06:44:02.396Z,12.43
2019-06-08T06:45:15.115Z,15.87
2019-06-08T06:46:23.697Z,16.70
2019-06-08T06:47:27.256Z,13.73
2019-06-08T06:48:31.487Z,11.43
2019-06-08T06:49:35.562Z,14.67
2019-06-08T06:50:39.852Z,15.85
2019-06-08T06:51:44.386Z,10.38
2019-06-08T06:52:48.985Z,15.93
2019-06-08T06:53:53.315Z,8.90
2019-06-08T06:54:57.668Z,10.98
2019-06-08T06:56:01.298Z,12.80
2019-06-08T06:57:05.593Z,10.53
2019-06-08T06:58:09.064Z,11.90
2019-06-08T06:59:14.293Z,11.27
2019-06-08T07:00:20.816Z,10.32
2019-06-08T07:01:25.053Z,14.67
2019-06-08T07:02:29.528Z,13.75
2019-06-08T07:03:33.760Z,10.75
2019-06-08T07:04:37.425Z,12.23
2019-06-08T07:05:41.637Z,10.95
2019-06-08T07:06:48.020Z,15.05
2019-06-08T07:07:52.477Z,14.20
2019-06-08T07:08:56.127Z,10.45
2019-06-08T07:10:00.354Z,9.93
2019-06-08T07:11:03.979Z,9.08
2019-06-08T07:12:08.205Z,9.28
2019-06-08T07:13:11.872Z,11.00
2019-06-08T07:14:16.079Z,16.02
2019-06-08T07:15:27.664Z,9.55
2019-06-08T07:16:31.878Z,10.08
2019-06-08T07:17:35.503Z,11.80
2019-06-08T07:18:39.700Z,10.95
2019-06-08T07:19:43.225Z,12.60
2019-06-08T07:20:48.124Z,12.25
2019-06-08T07:21:53.172Z,8.73
2019-06-08T07:22:59.023Z,13.70
2019-06-08T07:24:02.753Z,11.97
2019-06-08T07:25:07.888Z,11.85
2019-06-08T07:26:13.148Z,9.50
2019-06-08T07:27:17.372Z,9.15
2019-06-08T07:28:20.957Z,10.45
2019-06-08T07:29:25.190Z,6.78
2019-06-08T07:30:28.847Z,11.88
2019-06-08T07:31:33.087Z,10.00
2019-06-08T07:32:36.590Z,10.03
2019-06-08T07:33:41.126Z,7.25
2019-06-08T07:34:44.806Z,10.63
2019-06-08T07:35:49.970Z,10.80
2019-06-08T07:36:55.539Z,7.65
2019-06-08T07:37:59.917Z,8.63
2019-06-08T07:39:03.711Z,10.55
2019-06-08T07:40:09.464Z,11.45
2019-06-08T07:41:13.482Z,10.85
2019-06-08T07:42:17.634Z,11.93
2019-06-08T07:43:21.270Z,12.68
2019-06-08T07:44:25.497Z,11.85
2019-06-08T07:45:29.238Z,7.22
2019-06-08T07:46:33.471Z,9.25
2019-06-08T07:47:37.098Z,11.55
2019-06-08T07:48:41.354Z,7.97
2019-06-08T07:49:44.920Z,10.88
2019-06-08T07:50:50.261Z,6.55
2019-06-08T07:52:03.239Z,12.05
2019-06-08T07:52:59.719Z,11.03
2019-06-08T07:54:03.547Z,8.08
2019-06-08T07:55:07.855Z,10.30
2019-06-08T07:56:11.498Z,7.40
2019-06-08T07:57:15.708Z,8.60
2019-06-08T07:58:19.396Z,7.33
2019-06-08T07:59:23.465Z,11.75
2019-06-08T08:00:27.110Z,7.50
2019-06-08T08:01:36.056Z,12.60
2019-06-08T08:02:36.706Z,12.78
2019-06-08T08:03:40.953Z,6.30
2019-06-08T08:04:44.594Z,9.10
2019-06-08T08:05:48.733Z,12.50
2019-06-08T08:06:52.534Z,9.05
2019-06-08T08:07:56.944Z,7.92
2019-06-08T08:09:00.548Z,7.30
2019-06-08T08:10:07.646Z,8.58
2019-06-08T08:11:11.339Z,9.20
2019-06-08T08:12:15.504Z,8.83
2019-06-08T08:13:19.154Z,9.20
2019-06-08T08:14:23.272Z,15.95
2019-06-08T08:15:26.919Z,8.90
2019-06-08T08:16:30.993Z,12.10
2019-06-08T08:17:34.640Z,12.15
2019-06-08T08:18:38.850Z,11.20
2019-06-08T08:19:42.563Z,7.47
2019-06-08T08:20:46.771Z,9.68
2019-06-08T08:21:52.958Z,7.80
2019-06-08T08:23:02.172Z,18.15
2019-06-08T08:24:01.899Z,9.65
2019-06-08T08:25:08.215Z,11.38
2019-06-08T08:26:12.085Z,11.78
2019-06-08T08:27:17.899Z,8.60
2019-06-08T08:28:21.883Z,8.25
2019-06-08T08:29:28.246Z,11.93
2019-06-08T08:30:31.583Z,13.40
2019-06-08T08:31:37.413Z,13.18
2019-06-08T08:32:41.094Z,11.75
2019-06-08T08:33:45.337Z,13.90
2019-06-08T08:34:50.378Z,9.68
2019-06-08T08:35:55.576Z,6.20
2019-06-08T08:37:05.792Z,9.88
2019-06-08T08:38:07.611Z,11.12
2019-06-08T08:39:10.881Z,8.40
2019-06-08T08:40:15.060Z,8.83
2019-06-08T08:41:18.746Z,11.83
2019-06-08T08:42:22.950Z,9.55
2019-06-08T08:43:28.041Z,6.10
2019-06-08T08:44:32.465Z,14.18
2019-06-08T08:45:37.360Z,11.50
2019-06-08T08:46:41.802Z,7.92
2019-06-08T08:47:45.502Z,7.87
2019-06-08T08:48:50.949Z,9.13
2019-06-08T08:49:56.761Z,7.75
2019-06-08T08:51:03.524Z,7.85
2019-06-08T08:52:08.814Z,11.53
2019-06-08T08:53:17.888Z,9.05
2019-06-08T08:54:18.626Z,9.40
2019-06-08T08:55:27.943Z,8.28
2019-06-08T08:56:31.452Z,10.30
2019-06-08T08:57:38.582Z,9.13
2019-06-08T08:58:43.860Z,10.38
2019-06-08T08:59:51.835Z,9.28
2019-06-08T09:00:54.103Z,8.95
2019-06-08T09:02:01.596Z,10.95
2019-06-08T09:03:24.006Z,7.12
2019-06-08T09:04:14.233Z,8.23
2019-06-08T09:05:18.227Z,7.85
2019-06-08T09:06:23.843Z,7.95
2019-06-08T09:07:27.871Z,9.58
2019-06-08T09:08:32.036Z,8.38
2019-06-08T09:09:38.426Z,10.75
2019-06-08T09:10:41.649Z,9.13
2019-06-08T09:11:48.106Z,7.65
2019-06-08T09:12:52.246Z,6.42
2019-06-08T09:14:05.141Z,9.65
2019-06-08T09:15:05.168Z,6.58
2019-06-08T09:16:08.794Z,8.68
2019-06-08T09:17:12.934Z,10.50
2019-06-08T09:18:18.622Z,7.33
2019-06-08T09:19:22.556Z,12.28
2019-06-08T09:20:28.587Z,7.10
2019-06-08T09:21:32.057Z,9.55
2019-06-08T09:22:50.244Z,10.30
2019-06-08T09:23:44.597Z,8.40
2019-06-08T09:24:48.665Z,6.33
2019-06-08T09:26:01.355Z,7.28
2019-06-08T09:27:04.015Z,13.10
2019-06-08T09:28:09.366Z,5.08
2019-06-08T09:29:12.992Z,8.20
2019-06-08T09:30:18.236Z,6.83
2019-06-08T09:31:22.181Z,9.93
2019-06-08T09:32:28.192Z,10.30
2019-06-08T09:35:04.796Z,5.67
2019-06-08T09:36:08.582Z,7.22
2019-06-08T09:37:12.829Z,9.38
2019-06-08T09:38:18.535Z,7.62
2019-06-08T09:39:22.356Z,10.40
2019-06-08T09:40:28.433Z,7.55
2019-06-08T09:41:31.917Z,7.12
2019-06-08T09:42:35.562Z,7.10
2019-06-08T09:43:39.790Z,9.73
2019-06-08T09:44:43.403Z,8.93
2019-06-08T09:45:48.345Z,6.65
2019-06-08T09:46:53.572Z,5.08
2019-06-08T09:48:01.825Z,7.72
2019-06-08T09:49:06.502Z,6.92
2019-06-08T09:50:09.992Z,7.67
2019-06-08T09:51:13.539Z,14.45
2019-06-08T09:52:18.387Z,8.25
2019-06-08T09:53:31.916Z,7.10
2019-06-08T09:54:29.479Z,5.80
2019-06-08T09:55:33.101Z,8.90
2019-06-08T09:56:37.958Z,9.63
2019-06-08T09:57:41.622Z,8.45
2019-06-08T09:58:45.796Z,7.92
2019-06-08T09:59:49.347Z,6.05
2019-06-08T10:00:55.075Z,9.73
2019-06-08T10:02:05.074Z,5.33
2019-06-08T10:03:07.162Z,8.93
2019-06-08T10:04:10.927Z,10.13
2019-06-08T10:05:18.301Z,7.03
2019-06-08T10:06:21.367Z,7.00
2019-06-08T10:07:25.442Z,12.63
2019-06-08T10:08:29.166Z,6.22
2019-06-08T10:09:33.342Z,5.90
2019-06-08T10:10:36.995Z,8.40
2019-06-08T10:11:41.173Z,10.88
2019-06-08T10:12:44.831Z,9.35
2019-06-08T10:13:49.006Z,12.33
2019-06-08T10:14:52.661Z,14.63
2019-06-08T10:16:00.013Z,6.80
2019-06-08T10:17:03.921Z,6.20
2019-06-08T10:18:08.308Z,7.83
2019-06-08T10:19:12.048Z,7.22
2019-06-08T10:20:18.488Z,8.08
2019-06-08T10:21:22.731Z,7.08
2019-06-08T10:22:28.283Z,7.58
2019-06-08T10:23:34.483Z,6.25
2019-06-08T10:24:38.776Z,5.65
2019-06-08T10:25:43.263Z,6.72
2019-06-08T10:26:47.855Z,8.83
2019-06-08T10:27:51.628Z,6.47
2019-06-08T10:28:58.686Z,11.08
2019-06-08T10:30:03.232Z,7.53
2019-06-08T10:31:07.425Z,5.35
2019-06-08T10:32:12.741Z,5.78
2019-06-08T10:33:18.410Z,10.80
2019-06-08T10:34:22.310Z,5.33
2019-06-08T10:35:28.359Z,7.50
2019-06-08T10:36:32.351Z,6.65
2019-06-08T10:37:38.413Z,7.28
2019-06-08T10:38:42.365Z,5.60
2019-06-08T10:39:47.843Z,5.95
2019-06-08T10:41:06.858Z,3.80
2019-06-08T10:42:09.808Z,9.40
2019-06-08T10:43:12.442Z,7.58
2019-06-08T10:44:18.307Z,5.28
2019-06-08T10:45:22.295Z,4.00
2019-06-08T10:46:26.519Z,5.65
2019-06-08T10:47:30.514Z,8.63
2019-06-08T10:48:37.493Z,8.28
2019-06-08T10:49:40.484Z,7.17
2019-06-08T10:50:44.607Z,4.75
2019-06-08T10:51:48.891Z,7.12
2019-06-08T10:52:53.328Z,6.50
2019-06-08T10:53:57.977Z,6.78
2019-06-08T10:55:04.857Z,5.47
2019-06-08T10:56:10.416Z,7.40
2019-06-08T10:57:13.643Z,11.45
2019-06-08T10:58:19.490Z,5.45
2019-06-08T10:59:23.796Z,5.95
2019-06-08T11:00:28.234Z,5.60
2019-06-08T11:01:32.678Z,9.00
2019-06-08T11:02:37.573Z,6.72
2019-06-08T11:03:42.264Z,7.17
2019-06-08T11:04:48.310Z,6.90
2019-06-08T11:05:51.877Z,10.15
2019-06-08T11:06:58.035Z,7.37
2019-06-08T11:08:02.922Z,6.85
2019-06-08T11:09:12.610Z,6.90
2019-06-08T11:10:13.559Z,10.65
2019-06-08T11:11:19.825Z,8.93
2019-06-08T11:12:23.458Z,8.90
2019-06-08T11:13:28.309Z,7.60
2019-06-08T11:14:32.723Z,7.28
2019-06-08T11:15:37.834Z,8.83
2019-06-08T11:16:42.339Z,7.47
2019-06-08T11:17:45.915Z,6.28
2019-06-08T11:18:51.133Z,14.78
2019-06-08T11:19:54.804Z,9.90
2019-06-08T11:21:00.511Z,6.75
2019-06-08T11:22:07.707Z,5.30
2019-06-08T11:23:12.334Z,9.20
2019-06-08T11:24:23.502Z,7.45
2019-06-08T11:25:21.661Z,8.13
2019-06-08T11:26:28.916Z,11.28
2019-06-08T11:27:33.314Z,9.38
2019-06-08T11:28:38.288Z,7.22
2019-06-08T11:29:42.612Z,8.50
2019-06-08T11:30:48.060Z,10.30
2019-06-08T11:31:52.113Z,9.63
2019-06-08T11:32:57.709Z,11.20
2019-06-08T11:34:06.166Z,14.13
2019-06-08T11:35:12.337Z,8.68
2019-06-08T11:36:18.603Z,8.95
2019-06-08T11:37:21.547Z,11.25
2019-06-08T11:38:28.705Z,6.75
2019-06-08T11:39:30.985Z,7.85
2019-06-08T11:40:37.782Z,11.03
2019-06-08T11:41:40.689Z,9.50
2019-06-08T11:42:45.486Z,10.28
2019-06-08T11:43:49.142Z,10.28
2019-06-08T11:44:53.587Z,8.48
2019-06-08T11:45:58.409Z,11.63
2019-06-08T11:47:04.574Z,9.48
2019-06-08T11:48:08.763Z,10.28
2019-06-08T11:49:14.982Z,10.93
2019-06-08T11:50:24.494Z,11.78
2019-06-08T11:51:29.828Z,8.75
2019-06-08T11:52:33.601Z,8.98
2019-06-08T11:53:38.433Z,14.87
2019-06-08T11:54:42.244Z,8.35
2019-06-08T11:55:50.753Z,13.68
2019-06-08T11:56:53.909Z,11.43
2019-06-08T11:57:58.629Z,8.43
2019-06-08T11:59:03.347Z,13.88
2019-06-08T12:00:22.365Z,9.15
2019-06-08T12:01:18.364Z,7.37
2019-06-08T12:02:21.725Z,11.18
2019-06-08T12:03:27.671Z,14.05
2019-06-08T12:04:31.636Z,8.90
2019-06-08T12:05:35.261Z,10.88
2019-06-08T12:06:43.060Z,8.58
2019-06-08T12:07:48.039Z,14.43
2019-06-08T12:08:52.301Z,17.30
2019-06-08T12:09:57.905Z,12.25
2019-06-08T12:11:03.783Z,10.75
2019-06-08T12:12:12.283Z,12.20
2019-06-08T12:13:18.217Z,11.45
2019-06-08T12:14:22.037Z,14.68
2019-06-08T12:15:28.168Z,9.65
2019-06-08T12:16:31.664Z,8.70
2019-06-08T12:17:35.804Z,12.88
2019-06-08T12:18:40.394Z,11.38
2019-06-08T12:19:44.771Z,8.88
2019-06-08T12:20:48.957Z,9.63
2019-06-08T12:21:53.330Z,7.22
2019-06-08T12:22:56.889Z,7.58
2019-06-08T12:24:01.115Z,9.30
2019-06-08T12:25:08.029Z,11.53
2019-06-08T12:26:12.391Z,10.70
2019-06-08T12:27:29.184Z,11.25
2019-06-08T12:28:22.033Z,9.35
2019-06-08T12:29:25.603Z,10.00
2019-06-08T12:30:29.882Z,11.83
2019-06-08T12:31:33.436Z,9.50
2019-06-08T12:32:37.607Z,9.80
2019-06-08T12:33:41.192Z,17.75
2019-06-08T12:34:45.683Z,13.35
2019-06-08T12:35:49.355Z,10.23
2019-06-08T12:36:53.562Z,9.18
2019-06-08T12:37:58.098Z,17.57
2019-06-08T12:39:02.556Z,16.25
2019-06-08T12:40:09.739Z,15.90
2019-06-08T12:41:14.074Z,12.40
2019-06-08T12:42:24.250Z,11.18
2019-06-08T12:43:24.292Z,16.35
2019-06-08T12:44:29.133Z,16.50
2019-06-08T12:45:33.890Z,20.30
2019-06-08T12:46:38.374Z,13.70
2019-06-08T12:47:43.643Z,14.43
2019-06-08T12:48:47.199Z,13.35
2019-06-08T12:49:51.474Z,10.35
2019-06-08T12:50:55.099Z,11.22
2019-06-08T12:51:59.666Z,15.05
2019-06-08T12:53:03.349Z,8.90
2019-06-08T12:54:08.438Z,7.87
2019-06-08T12:55:18.337Z,11.70
2019-06-08T12:56:23.825Z,13.62
2019-06-08T12:57:24.561Z,12.03
2019-06-08T12:58:28.759Z,10.28
2019-06-08T12:59:32.331Z,13.18
2019-06-08T13:00:37.995Z,16.05
2019-06-08T13:01:41.749Z,17.30
2019-06-08T13:02:47.778Z,13.15
2019-06-08T13:03:52.405Z,12.10
2019-06-08T13:04:56.551Z,15.80
2019-06-08T13:06:00.263Z,11.12
2019-06-08T13:07:04.483Z,13.90
2019-06-08T13:08:10.057Z,22.30
2019-06-08T13:09:14.768Z,13.43
2019-06-08T13:10:23.903Z,15.00
2019-06-08T13:11:28.081Z,9.45
2019-06-08T13:12:31.252Z,14.47
2019-06-08T13:13:37.630Z,14.68
2019-06-08T13:14:41.019Z,11.68
2019-06-08T13:15:45.247Z,16.17
2019-06-08T13:16:52.001Z,11.18
2019-06-08T13:17:54.748Z,11.97
2019-06-08T13:18:58.796Z,11.53
2019-06-08T13:20:03.047Z,14.15
2019-06-08T13:21:22.223Z,11.68
2019-06-08T13:22:28.968Z,12.03
2019-06-08T13:23:34.739Z,17.92
2019-06-08T13:24:40.483Z,13.50
2019-06-08T13:25:48.487Z,17.52
2019-06-08T13:26:52.976Z,13.20
2019-06-08T13:27:58.295Z,15.50
2019-06-08T13:29:02.733Z,17.73
2019-06-08T13:30:07.526Z,10.50
2019-06-08T13:31:14.309Z,18.57
2019-06-08T13:32:18.977Z,11.22
2019-06-08T13:33:27.922Z,17.95
2019-06-08T13:34:30.975Z,17.35
2019-06-08T13:35:35.220Z,17.73
2019-06-08T13:36:42.211Z,16.23
2019-06-08T13:37:48.129Z,20.60
2019-06-08T13:38:52.150Z,17.00
2019-06-08T13:39:59.042Z,13.43
2019-06-08T13:41:01.896Z,25.25
2019-06-08T13:42:07.751Z,9.68
2019-06-08T13:43:11.546Z,12.45
2019-06-08T13:44:15.739Z,15.03
2019-06-08T13:45:21.655Z,16.37
2019-06-08T13:46:27.940Z,19.35
2019-06-08T13:47:31.137Z,13.50
2019-06-08T13:48:37.528Z,9.98
2019-06-08T13:49:40.958Z,15.93
2019-06-08T13:50:46.583Z,13.85
2019-06-08T13:51:51.153Z,14.00
2019-06-08T13:52:55.363Z,16.40
2019-06-08T13:53:59.044Z,16.55
2019-06-08T13:55:03.406Z,21.62
2019-06-08T13:56:07.902Z,19.90
2019-06-08T13:57:37.947Z,17.30
2019-06-08T13:58:21.835Z,14.53
2019-06-08T13:59:27.355Z,24.37
2019-06-08T14:00:34.059Z,16.75
2019-06-08T14:01:38.232Z,12.80
2019-06-08T14:02:41.877Z,18.42
2019-06-08T14:03:49.798Z,19.52